KHIB/HIB METAR and TAF weather

Enter ICAO airport designator
Station Type Date Time Source
KHIB METAR 2021/09/28 15:53 UTC NOAA

KHIB 281553Z AUTO 21005KT 10SM CLR 17/11 A2993 RMK AO2 SLP139 T01720111


Station Type Date Time Source
KHIB Decoded METAR 2021/09/28 15:53 UTC NOAA

CHISHOLM-HIBBING AIRPORT, MN, United States (KHIB) 47-23N 92-50W 412M
Sep 28, 2021 - 11:53 AM EDT / 2021.09.28 1553 UTC
Wind: from the SSW (210 degrees) at 6 MPH (5 KT):0
Visibility: 10 mile(s):0
Sky conditions: clear
Temperature: 63.0 F (17.2 C)
Dew Point: 52.0 F (11.1 C)
Relative Humidity: 67%
Pressure (altimeter): 29.93 in. Hg (1013 hPa)
ob: KHIB 281553Z AUTO 21005KT 10SM CLR 17/11 A2993 RMK AO2 SLP139 T01720111
cycle: 16

Station Type Date Time Source
KHIB TAF 2021/09/28 15:58 UTC NOAA

TAF
AMD KHIB 281456Z 2815/2912 VRB02KT P6SM SCT005
FM281600 18007G16KT P6SM FEW150
FM290000 VRB03KT P6SM SKC
FM290900 00000KT 2SM BR SKC

Example: see airport list